Time;durP1;ratioP1;P1;durP2;ratioP2;P2;SDS_P1;SDS_P2;PMS_P1;PMS_P2;Temp;Humidity;BMP_temperature;BMP_pressure;BME280_temperature;BME280_humidity;BME280_pressure;Samples;Min_cycle;Max_cycle;Signal;HPM_P1;HPM_P2
2023/06/29 00:03:52;;;;;;;10.57;5.05;;;18.10;99.90;;;;;;7341925;32;20146;-55
2023/06/29 00:07:58;;;;;;;6.40;4.70;;;18.10;99.90;;;;;;7339210;32;20210;-55
2023/06/29 00:11:59;;;;;;;14.13;5.40;;;18.10;99.90;;;;;;7344415;32;20125;-56
2023/06/29 00:16:01;;;;;;;10.15;4.87;;;18.10;99.90;;;;;;7342153;32;20123;-56
2023/06/29 00:20:09;;;;;;;11.18;5.05;;;18.10;99.90;;;;;;7340697;32;20704;-54
2023/06/29 00:24:11;;;;;;;11.38;5.47;;;18.00;99.90;;;;;;7340412;32;20238;-55
2023/06/29 00:28:13;;;;;;;8.13;4.45;;;18.00;99.90;;;;;;7343168;32;20769;-55
2023/06/29 00:32:15;;;;;;;11.10;4.82;;;18.00;99.90;;;;;;7338595;32;20107;-55
2023/06/29 00:36:17;;;;;;;8.60;5.20;;;18.00;99.90;;;;;;7339506;32;20234;-55
2023/06/29 00:40:19;;;;;;;6.53;4.50;;;18.00;99.90;;;;;;7341816;32;20606;-55
2023/06/29 00:44:22;;;;;;;8.55;4.80;;;17.90;99.90;;;;;;7340682;32;20142;-55
2023/06/29 00:48:25;;;;;;;7.43;4.57;;;17.90;99.90;;;;;;7347406;32;20214;-55
2023/06/29 00:52:28;;;;;;;11.25;5.40;;;17.90;99.90;;;;;;7341705;32;20207;-55
2023/06/29 00:56:34;;;;;;;9.48;5.07;;;17.90;99.90;;;;;;7344377;32;20135;-55
2023/06/29 01:00:36;;;;;;;11.53;5.20;;;17.80;99.90;;;;;;7342537;32;20166;-55
2023/06/29 01:04:38;;;;;;;7.78;4.62;;;17.80;99.90;;;;;;7338190;32;20199;-55
2023/06/29 01:08:44;;;;;;;9.50;5.12;;;17.80;99.90;;;;;;7342670;32;20245;-55
2023/06/29 01:12:48;;;;;;;12.73;5.50;;;17.90;99.90;;;;;;7334665;32;20556;-55
2023/06/29 01:16:52;;;;;;;9.15;4.95;;;17.80;99.90;;;;;;7327591;32;20225;-55
2023/06/29 01:20:55;;;;;;;9.18;5.30;;;17.80;99.90;;;;;;7341392;32;20259;-55
2023/06/29 01:24:58;;;;;;;9.05;4.87;;;17.90;99.90;;;;;;7343319;32;20116;-56
2023/06/29 01:29:00;;;;;;;9.00;5.35;;;17.90;99.90;;;;;;7323389;32;20188;-56
2023/06/29 01:33:03;;;;;;;11.77;5.68;;;17.90;99.90;;;;;;7341592;32;20124;-55
2023/06/29 01:37:23;;;;;;;9.38;5.40;;;18.00;99.90;;;;;;7344605;32;20198;-55
2023/06/29 01:41:26;;;;;;;9.30;4.85;;;18.00;99.90;;;;;;7342190;32;20632;-55
2023/06/29 01:45:28;;;;;;;9.48;5.28;;;18.00;99.90;;;;;;7344678;32;20214;-55
2023/06/29 01:49:33;;;;;;;8.20;5.07;;;18.00;99.90;;;;;;7338733;32;20111;-55
2023/06/29 01:53:36;;;;;;;7.87;4.87;;;18.00;99.90;;;;;;7340057;32;20156;-55
2023/06/29 01:57:38;;;;;;;11.77;6.05;;;18.00;99.90;;;;;;7340049;32;20257;-55
2023/06/29 02:01:40;;;;;;;10.10;5.53;;;18.10;99.90;;;;;;7345585;32;20103;-55
2023/06/29 02:05:42;;;;;;;9.85;5.12;;;18.10;99.90;;;;;;7342689;32;20119;-55
2023/06/29 02:09:44;;;;;;;10.85;5.30;;;18.10;99.90;;;;;;7345057;32;20240;-55
2023/06/29 02:13:47;;;;;;;8.95;4.78;;;18.20;99.90;;;;;;7331791;32;20141;-55
2023/06/29 02:17:48;;;;;;;11.27;5.50;;;18.20;99.90;;;;;;7332529;32;20119;-54
2023/06/29 02:21:50;;;;;;;11.65;5.55;;;18.10;99.90;;;;;;7345394;32;20225;-55
2023/06/29 02:25:52;;;;;;;8.52;5.20;;;18.20;99.90;;;;;;7342299;32;20190;-55
2023/06/29 02:29:56;;;;;;;10.80;5.53;;;18.20;99.90;;;;;;7342177;32;20112;-55
2023/06/29 02:33:58;;;;;;;11.38;5.40;;;18.20;99.90;;;;;;7348075;32;20185;-57
2023/06/29 02:38:00;;;;;;;9.40;5.70;;;18.10;99.90;;;;;;7344558;32;20495;-55
2023/06/29 02:42:02;;;;;;;11.38;4.87;;;18.10;99.90;;;;;;7344814;32;20510;-55
2023/06/29 02:46:03;;;;;;;10.25;5.12;;;18.10;99.90;;;;;;7345119;32;20186;-55
2023/06/29 02:50:06;;;;;;;7.20;5.35;;;18.00;99.90;;;;;;7326039;32;20285;-55
2023/06/29 02:54:08;;;;;;;10.35;5.00;;;18.00;99.90;;;;;;7344608;32;20228;-55
2023/06/29 02:58:09;;;;;;;8.50;5.20;;;18.00;99.90;;;;;;7344053;32;20249;-55
2023/06/29 03:02:11;;;;;;;9.60;5.57;;;18.00;99.90;;;;;;7341489;32;20111;-55
2023/06/29 03:06:13;;;;;;;8.35;5.93;;;18.00;99.90;;;;;;7347996;32;20160;-55
2023/06/29 03:10:15;;;;;;;8.00;5.50;;;18.00;99.90;;;;;;7343610;32;20313;-55
2023/06/29 03:14:17;;;;;;;12.13;6.20;;;18.00;99.90;;;;;;7344876;32;20370;-55
2023/06/29 03:18:18;;;;;;;12.40;6.00;;;18.00;99.90;;;;;;7342957;32;20503;-55
2023/06/29 03:22:20;;;;;;;8.88;5.30;;;18.00;99.90;;;;;;7342591;32;20591;-55
2023/06/29 03:26:22;;;;;;;11.05;5.72;;;18.10;99.90;;;;;;7344576;32;20233;-55
2023/06/29 03:30:24;;;;;;;9.90;5.43;;;18.10;99.90;;;;;;7346874;32;20122;-55
2023/06/29 03:34:26;;;;;;;11.43;5.55;;;18.10;99.90;;;;;;7341992;32;20170;-55
2023/06/29 03:38:28;;;;;;;9.48;4.95;;;18.10;99.90;;;;;;7345268;32;20111;-55
2023/06/29 03:42:29;;;;;;;10.10;5.57;;;18.10;99.90;;;;;;7346648;32;20163;-55
2023/06/29 03:46:32;;;;;;;9.55;5.78;;;18.10;99.90;;;;;;7342692;32;20643;-55
2023/06/29 03:50:34;;;;;;;9.93;5.18;;;18.10;99.90;;;;;;7335647;32;20145;-55
2023/06/29 03:54:35;;;;;;;8.10;5.18;;;18.20;99.90;;;;;;7344359;32;20190;-55
2023/06/29 03:58:37;;;;;;;9.57;5.32;;;18.20;99.90;;;;;;7343873;32;20734;-55
2023/06/29 04:02:40;;;;;;;8.48;4.78;;;18.10;99.90;;;;;;7343012;32;20278;-55
2023/06/29 04:06:41;;;;;;;8.95;4.62;;;18.20;99.90;;;;;;7347801;32;20123;-55
2023/06/29 04:10:43;;;;;;;11.75;5.95;;;18.10;99.90;;;;;;7343799;32;20111;-55
2023/06/29 04:14:46;;;;;;;7.05;5.10;;;18.10;99.90;;;;;;7342892;32;20659;-55
2023/06/29 04:18:47;;;;;;;8.32;5.68;;;18.10;99.90;;;;;;7339245;32;20214;-55
2023/06/29 04:22:49;;;;;;;11.80;5.50;;;18.20;99.90;;;;;;7345819;32;20303;-55
2023/06/29 04:26:51;;;;;;;7.25;4.90;;;18.20;99.90;;;;;;7345366;32;20142;-55
2023/06/29 04:30:52;;;;;;;8.48;5.57;;;18.20;99.90;;;;;;7344672;32;20221;-55
2023/06/29 04:34:54;;;;;;;8.43;5.65;;;18.30;99.90;;;;;;7342800;32;20172;-55
2023/06/29 04:38:56;;;;;;;8.15;4.87;;;18.30;99.90;;;;;;7345406;32;20144;-55
2023/06/29 04:42:58;;;;;;;8.68;5.40;;;18.40;99.90;;;;;;7332344;32;20244;-57
2023/06/29 04:47:00;;;;;;;9.27;5.07;;;18.40;99.90;;;;;;7338880;32;20600;-57
2023/06/29 04:51:06;;;;;;;8.85;5.93;;;18.40;99.90;;;;;;7335764;32;20951;-56
2023/06/29 04:55:09;;;;;;;10.77;5.65;;;18.40;99.90;;;;;;7343536;32;20578;-56
2023/06/29 04:59:11;;;;;;;8.88;5.62;;;18.50;99.90;;;;;;7344460;32;20130;-56
2023/06/29 05:03:12;;;;;;;7.20;5.80;;;18.50;99.90;;;;;;7340942;32;20186;-56
2023/06/29 05:07:15;;;;;;;8.40;5.53;;;18.50;99.90;;;;;;7344257;32;20265;-56
2023/06/29 05:11:17;;;;;;;10.85;5.82;;;18.60;99.90;;;;;;7336947;32;20284;-57
2023/06/29 05:15:18;;;;;;;9.60;5.18;;;18.70;99.90;;;;;;7344145;32;20376;-56
2023/06/29 05:19:20;;;;;;;8.52;6.00;;;18.70;99.90;;;;;;7353830;32;20741;-56
2023/06/29 05:23:22;;;;;;;10.65;5.45;;;18.70;99.90;;;;;;7342798;32;20115;-56
2023/06/29 05:27:24;;;;;;;8.70;5.25;;;18.90;99.90;;;;;;7335534;32;20124;-56
2023/06/29 05:31:26;;;;;;;8.07;5.45;;;18.90;99.90;;;;;;7345861;32;20509;-56
2023/06/29 05:35:28;;;;;;;11.63;5.97;;;19.00;99.90;;;;;;7349620;32;20164;-56
2023/06/29 05:39:29;;;;;;;8.20;5.93;;;19.10;99.90;;;;;;7339521;32;20148;-56
2023/06/29 05:43:31;;;;;;;7.43;5.22;;;19.00;99.90;;;;;;7351121;32;20107;-56
2023/06/29 05:47:33;;;;;;;9.32;5.50;;;19.10;99.90;;;;;;7356044;32;20107;-56
2023/06/29 05:51:37;;;;;;;8.95;5.72;;;19.10;99.90;;;;;;7357027;32;20226;-56
2023/06/29 05:55:38;;;;;;;9.43;5.68;;;19.20;99.90;;;;;;7353970;32;20222;-56
2023/06/29 05:59:40;;;;;;;9.48;6.03;;;19.30;99.90;;;;;;7353791;32;20682;-56
2023/06/29 06:03:42;;;;;;;11.38;5.60;;;19.30;99.90;;;;;;7352096;32;20503;-57
2023/06/29 06:07:44;;;;;;;11.82;6.12;;;19.40;99.90;;;;;;7352039;32;20111;-56
2023/06/29 06:11:46;;;;;;;9.68;5.65;;;19.40;99.90;;;;;;7357275;32;20262;-57
2023/06/29 06:15:47;;;;;;;10.65;5.53;;;19.50;99.90;;;;;;7352202;32;20115;-57
2023/06/29 06:19:51;;;;;;;9.90;5.45;;;19.60;99.90;;;;;;7348050;32;20897;-57
2023/06/29 06:23:53;;;;;;;8.80;5.65;;;19.50;99.90;;;;;;7348399;32;20267;-57
2023/06/29 06:27:55;;;;;;;7.78;5.28;;;19.70;99.90;;;;;;7355783;32;20119;-57
2023/06/29 06:31:57;;;;;;;7.82;5.22;;;19.80;99.90;;;;;;7357706;32;20119;-57
2023/06/29 06:35:59;;;;;;;10.02;5.40;;;19.80;99.90;;;;;;7352481;32;20115;-56
2023/06/29 06:40:07;;;;;;;9.98;5.25;;;19.90;99.90;;;;;;7350586;32;20138;-56
2023/06/29 06:44:09;;;;;;;10.48;5.20;;;20.00;99.90;;;;;;7345352;32;20175;-56
2023/06/29 06:48:11;;;;;;;8.50;6.05;;;20.00;99.90;;;;;;7351246;32;20215;-57
2023/06/29 06:52:13;;;;;;;10.25;4.97;;;20.00;99.90;;;;;;7358135;32;20119;-56
2023/06/29 06:56:15;;;;;;;12.98;5.10;;;19.90;99.90;;;;;;7351603;32;20111;-56
2023/06/29 07:00:17;;;;;;;8.60;5.95;;;20.00;99.90;;;;;;7344045;32;20257;-56
2023/06/29 07:04:18;;;;;;;10.50;5.37;;;20.10;99.90;;;;;;7345492;32;20280;-57
2023/06/29 07:08:21;;;;;;;9.45;5.70;;;20.20;99.90;;;;;;7330195;32;20297;-56
2023/06/29 07:12:23;;;;;;;10.80;5.53;;;20.20;99.90;;;;;;7339441;32;20127;-57
2023/06/29 07:16:25;;;;;;;10.63;5.47;;;20.40;99.90;;;;;;7350716;32;20164;-56
2023/06/29 07:20:27;;;;;;;10.70;5.40;;;20.50;99.90;;;;;;7355578;32;20240;-56
2023/06/29 07:24:31;;;;;;;8.25;5.50;;;20.60;99.90;;;;;;7351637;32;20127;-56
2023/06/29 07:28:33;;;;;;;13.60;4.87;;;20.70;99.90;;;;;;7346375;32;20111;-56
2023/06/29 07:32:35;;;;;;;9.25;5.00;;;20.60;99.90;;;;;;7350095;32;20115;-57
2023/06/29 07:36:37;;;;;;;13.38;5.00;;;20.60;99.90;;;;;;7350542;32;20236;-57
2023/06/29 07:40:38;;;;;;;8.05;4.60;;;20.70;99.90;;;;;;7355291;32;20157;-57
2023/06/29 07:44:40;;;;;;;12.48;5.28;;;20.70;99.90;;;;;;7352473;32;20184;-56
2023/06/29 07:48:42;;;;;;;14.25;5.28;;;20.80;99.90;;;;;;7346651;32;20264;-56
2023/06/29 07:52:44;;;;;;;13.18;5.68;;;21.00;99.90;;;;;;7353031;32;20131;-56
2023/06/29 07:56:46;;;;;;;10.23;4.93;;;21.20;99.90;;;;;;7346420;32;20250;-56
2023/06/29 08:00:51;;;;;;;10.63;4.97;;;21.50;99.90;;;;;;7344305;32;20135;-57
2023/06/29 08:04:52;;;;;;;7.22;4.90;;;21.70;99.90;;;;;;7342845;32;20115;-56
2023/06/29 08:08:57;;;;;;;7.62;5.10;;;21.80;99.90;;;;;;7341536;32;20729;-56
2023/06/29 08:13:00;;;;;;;9.68;4.80;;;21.80;99.90;;;;;;7349514;32;20110;-57
2023/06/29 08:17:05;;;;;;;9.77;5.70;;;21.80;99.90;;;;;;7352131;32;20234;-57
2023/06/29 08:21:10;;;;;;;7.45;4.80;;;21.80;99.90;;;;;;7353822;32;20253;-57
2023/06/29 08:25:12;;;;;;;9.20;5.18;;;21.80;99.90;;;;;;7348050;32;20115;-57
2023/06/29 08:29:14;;;;;;;13.68;6.50;;;21.70;99.90;;;;;;7350408;32;20127;-57
2023/06/29 08:33:16;;;;;;;11.52;6.28;;;21.60;99.90;;;;;;7340103;32;20171;-57
2023/06/29 08:37:18;;;;;;;10.10;5.87;;;21.50;99.90;;;;;;7341934;32;20559;-57
2023/06/29 08:41:20;;;;;;;14.70;6.57;;;21.50;99.90;;;;;;7343969;32;20288;-57
2023/06/29 08:45:22;;;;;;;8.73;5.93;;;21.50;99.90;;;;;;7338769;32;20238;-57
2023/06/29 08:49:25;;;;;;;11.55;5.95;;;21.40;99.90;;;;;;7343295;32;20889;-57
2023/06/29 08:53:27;;;;;;;11.55;5.32;;;21.40;99.90;;;;;;7341506;32;21016;-57
2023/06/29 08:57:31;;;;;;;9.73;5.15;;;21.40;99.90;;;;;;7347517;32;20158;-57
2023/06/29 09:01:34;;;;;;;12.48;5.87;;;21.40;99.90;;;;;;7337991;32;20186;-57
2023/06/29 09:05:36;;;;;;;13.13;6.15;;;21.40;99.90;;;;;;7344310;32;20178;-57
2023/06/29 09:09:38;;;;;;;10.25;6.15;;;21.20;99.90;;;;;;7332220;32;20704;-56
2023/06/29 09:13:39;;;;;;;12.18;5.85;;;21.20;99.90;;;;;;7345364;32;20138;-56
2023/06/29 09:17:45;;;;;;;12.95;6.50;;;21.30;99.90;;;;;;7352176;32;20158;-57
2023/06/29 09:21:48;;;;;;;12.27;6.27;;;21.30;99.90;;;;;;7352695;32;20211;-56
2023/06/29 09:25:49;;;;;;;9.43;5.32;;;21.40;99.90;;;;;;7354896;32;20222;-56
2023/06/29 09:29:52;;;;;;;15.70;6.97;;;21.60;99.90;;;;;;7354314;32;20253;-56
2023/06/29 09:33:54;;;;;;;10.50;5.72;;;21.70;99.90;;;;;;7348093;32;20133;-56
2023/06/29 09:37:56;;;;;;;14.10;5.75;;;21.90;99.90;;;;;;7347284;32;20119;-56
2023/06/29 09:41:57;;;;;;;11.18;6.35;;;22.10;99.90;;;;;;7348732;32;20229;-57
2023/06/29 09:46:09;;;;;;;17.05;7.37;;;22.40;99.90;;;;;;7346490;32;21325;-57
2023/06/29 09:50:32;;;;;;;16.10;7.37;;;22.50;99.90;;;;;;7351061;32;20139;-57
2023/06/29 09:54:35;;;;;;;13.40;8.05;;;22.50;99.90;;;;;;7356916;32;20206;-56
2023/06/29 09:58:37;;;;;;;11.55;7.43;;;23.00;99.90;;;;;;7353965;32;20179;-56
2023/06/29 10:02:41;;;;;;;16.20;9.15;;;23.40;99.90;;;;;;7353303;32;20299;-56
2023/06/29 10:06:48;;;;;;;13.23;9.40;;;23.90;99.90;;;;;;7348429;32;20798;-56
2023/06/29 10:10:54;;;;;;;11.77;8.95;;;24.20;99.90;;;;;;7349839;32;20114;-56
2023/06/29 10:15:00;;;;;;;15.43;9.63;;;24.80;99.90;;;;;;7348236;32;20965;-56
2023/06/29 10:19:18;;;;;;;15.00;9.67;;;25.10;99.90;;;;;;7344351;32;20270;-56
2023/06/29 10:23:23;;;;;;;25.23;12.25;;;25.20;99.90;;;;;;7347515;32;20480;-56
2023/06/29 10:27:29;;;;;;;15.90;10.55;;;25.40;99.90;;;;;;7344604;32;20233;-56
2023/06/29 10:31:34;;;;;;;19.80;10.88;;;25.50;99.90;;;;;;7343654;32;20143;-56
2023/06/29 10:35:36;;;;;;;15.60;10.10;;;25.80;99.90;;;;;;7346522;32;20222;-56
2023/06/29 10:39:41;;;;;;;15.85;10.27;;;26.80;99.90;;;;;;7345126;32;20202;-56
2023/06/29 10:44:00;;;;;;;20.92;11.45;;;26.80;99.90;;;;;;7342309;32;20264;-57
2023/06/29 10:48:03;;;;;;;19.33;11.38;;;26.50;99.90;;;;;;7343649;32;20944;-57
2023/06/29 10:52:07;;;;;;;19.60;11.55;;;26.10;99.90;;;;;;7344433;32;21034;-56
2023/06/29 10:56:29;;;;;;;18.83;11.73;;;26.00;99.90;;;;;;7346862;32;20134;-57
2023/06/29 11:00:31;;;;;;;17.95;11.48;;;25.60;99.90;;;;;;7341319;32;20167;-56
2023/06/29 11:04:34;;;;;;;16.77;12.37;;;25.30;99.90;;;;;;7343395;32;20322;-56
2023/06/29 11:08:36;;;;;;;17.60;11.02;;;24.90;99.90;;;;;;7344505;32;20107;-56
2023/06/29 11:12:38;;;;;;;17.27;10.95;;;24.60;99.90;;;;;;7340768;32;20381;-56
2023/06/29 11:16:40;;;;;;;18.00;11.55;;;24.20;99.90;;;;;;7348281;32;20528;-56
2023/06/29 11:20:42;;;;;;;19.87;11.60;;;23.90;99.90;;;;;;7341301;32;20172;-54
2023/06/29 11:24:44;;;;;;;14.93;10.95;;;23.70;99.90;;;;;;7343103;32;20743;-54
2023/06/29 11:28:50;;;;;;;20.37;12.02;;;23.50;99.90;;;;;;7341970;32;20157;-54
2023/06/29 11:32:53;;;;;;;21.17;14.23;;;23.20;99.90;;;;;;7340392;32;20123;-53
2023/06/29 11:36:55;;;;;;;22.52;14.40;;;22.90;99.90;;;;;;7348015;32;20184;-54
2023/06/29 11:41:04;;;;;;;18.05;14.90;;;22.60;99.90;;;;;;7341412;32;20134;-54
2023/06/29 11:45:07;;;;;;;23.00;14.75;;;22.30;99.90;;;;;;7344664;32;20129;-55
2023/06/29 11:49:08;;;;;;;24.08;14.90;;;22.10;99.90;;;;;;7342650;32;20208;-54
2023/06/29 11:53:11;;;;;;;22.23;14.00;;;22.00;99.90;;;;;;7343153;32;20176;-54
2023/06/29 11:57:20;;;;;;;21.33;14.52;;;22.00;99.90;;;;;;7343786;32;20139;-55
2023/06/29 12:01:22;;;;;;;22.67;14.43;;;22.10;99.90;;;;;;7344803;32;20297;-54
2023/06/29 12:05:28;;;;;;;22.40;13.85;;;22.10;99.90;;;;;;7344145;32;20297;-54
2023/06/29 12:09:31;;;;;;;23.63;17.73;;;22.30;99.90;;;;;;7346645;32;20752;-55
2023/06/29 12:13:33;;;;;;;23.65;17.30;;;22.60;99.90;;;;;;7332264;32;20551;-54
2023/06/29 12:17:34;;;;;;;30.10;17.50;;;23.10;99.90;;;;;;7346560;32;20118;-56
2023/06/29 12:21:39;;;;;;;24.10;16.50;;;23.70;99.90;;;;;;7340335;32;20131;-56
2023/06/29 12:25:52;;;;;;;24.85;17.55;;;24.00;99.90;;;;;;7345304;32;20170;-55
2023/06/29 12:29:53;;;;;;;36.72;17.83;;;24.20;99.90;;;;;;7339836;32;20229;-56
2023/06/29 12:33:56;;;;;;;22.65;17.40;;;24.10;99.90;;;;;;7340545;32;20820;-56
2023/06/29 12:37:58;;;;;;;25.65;17.20;;;24.00;99.90;;;;;;7342208;32;20284;-56
2023/06/29 12:42:00;;;;;;;24.65;17.87;;;23.80;99.90;;;;;;7349961;32;20175;-56
2023/06/29 12:46:01;;;;;;;31.12;15.68;;;23.70;99.90;;;;;;7344928;32;20103;-56
2023/06/29 12:50:04;;;;;;;25.92;16.73;;;23.70;99.90;;;;;;7339451;32;20116;-56
2023/06/29 12:54:05;;;;;;;21.85;16.65;;;23.60;99.90;;;;;;7353367;32;20191;-56
2023/06/29 12:58:07;;;;;;;24.37;16.02;;;23.60;99.90;;;;;;7344680;32;20616;-56
2023/06/29 13:02:10;;;;;;;24.55;16.85;;;23.60;99.90;;;;;;7344494;32;20110;-56
2023/06/29 13:06:11;;;;;;;26.05;17.10;;;23.40;99.90;;;;;;7352079;32;20133;-56
2023/06/29 13:10:13;;;;;;;21.30;16.98;;;23.50;99.90;;;;;;7351807;32;20107;-55
2023/06/29 13:14:15;;;;;;;28.92;18.95;;;23.40;99.90;;;;;;7353036;32;20107;-55
2023/06/29 13:18:17;;;;;;;25.95;18.80;;;23.30;99.90;;;;;;7352594;32;20107;-57
2023/06/29 13:22:19;;;;;;;23.30;16.85;;;23.30;99.90;;;;;;7349586;32;20103;-57
2023/06/29 13:26:20;;;;;;;30.30;19.77;;;23.20;99.90;;;;;;7348575;32;20126;-56
2023/06/29 13:30:23;;;;;;;23.27;17.98;;;23.30;99.90;;;;;;7342107;32;20171;-56
2023/06/29 13:34:28;;;;;;;26.25;18.95;;;23.40;99.90;;;;;;7331245;32;20237;-56
2023/06/29 13:38:32;;;;;;;23.40;17.23;;;23.30;99.90;;;;;;7343794;32;20595;-56
2023/06/29 13:42:34;;;;;;;26.05;18.50;;;23.30;99.90;;;;;;7344207;32;20550;-56
2023/06/29 13:46:37;;;;;;;23.05;17.30;;;23.40;99.90;;;;;;7343141;32;20116;-57
2023/06/29 13:50:39;;;;;;;27.33;17.40;;;23.50;99.90;;;;;;7344275;32;20123;-58
2023/06/29 13:54:42;;;;;;;25.27;16.92;;;23.50;99.90;;;;;;7342114;32;20247;-58
2023/06/29 13:58:44;;;;;;;27.17;17.15;;;23.50;99.90;;;;;;7345758;32;20222;-58
2023/06/29 14:02:46;;;;;;;25.23;17.60;;;23.60;99.90;;;;;;7351256;32;20210;-57
2023/06/29 14:06:48;;;;;;;28.98;18.12;;;23.60;99.90;;;;;;7345691;32;20253;-57
2023/06/29 14:10:50;;;;;;;23.55;16.75;;;23.80;99.90;;;;;;7352273;32;20134;-57
2023/06/29 14:14:52;;;;;;;23.48;17.50;;;23.90;99.90;;;;;;7351344;32;20526;-57
2023/06/29 14:18:54;;;;;;;20.08;15.48;;;24.30;99.90;;;;;;7353632;32;20241;-58
2023/06/29 14:22:56;;;;;;;22.87;15.80;;;24.40;99.90;;;;;;7349046;32;20146;-58
2023/06/29 14:26:58;;;;;;;24.00;16.20;;;24.50;99.90;;;;;;7356878;32;20863;-57
2023/06/29 14:31:00;;;;;;;20.65;14.50;;;24.40;99.90;;;;;;7358220;32;20119;-57
2023/06/29 14:35:02;;;;;;;20.85;15.52;;;24.20;99.90;;;;;;7356702;32;20243;-54
2023/06/29 14:39:05;;;;;;;22.62;15.73;;;23.90;99.90;;;;;;7341604;32;20173;-54
2023/06/29 14:43:07;;;;;;;20.60;15.68;;;23.80;99.90;;;;;;7356788;32;20549;-54
2023/06/29 14:47:09;;;;;;;24.10;15.20;;;23.80;99.90;;;;;;7351949;32;20869;-54
2023/06/29 14:51:11;;;;;;;17.08;13.90;;;23.80;99.90;;;;;;7342019;32;20260;-56
2023/06/29 14:55:13;;;;;;;20.73;13.27;;;23.90;99.90;;;;;;7337063;32;20143;-56
2023/06/29 14:59:15;;;;;;;18.67;14.02;;;23.90;99.90;;;;;;7356035;32;20534;-57
2023/06/29 15:03:17;;;;;;;18.30;13.27;;;24.00;99.90;;;;;;7354430;32;20206;-57
2023/06/29 15:07:19;;;;;;;18.23;13.60;;;24.00;99.90;;;;;;7352886;32;20190;-58
2023/06/29 15:11:21;;;;;;;15.75;12.27;;;24.20;99.90;;;;;;7351092;32;20243;-57
2023/06/29 15:15:23;;;;;;;15.65;12.80;;;24.20;99.90;;;;;;7352427;32;20158;-57
2023/06/29 15:19:25;;;;;;;16.98;13.18;;;24.10;99.90;;;;;;7348906;32;20290;-57
2023/06/29 15:23:27;;;;;;;17.35;14.13;;;24.10;99.90;;;;;;7353635;32;20127;-57
2023/06/29 15:27:29;;;;;;;17.80;13.77;;;24.00;99.90;;;;;;7355355;32;20501;-57
2023/06/29 15:31:31;;;;;;;18.12;15.10;;;23.80;99.90;;;;;;7354938;32;20107;-57
2023/06/29 15:35:32;;;;;;;20.65;14.05;;;23.50;99.90;;;;;;7356124;32;20107;-57
2023/06/29 15:39:35;;;;;;;22.92;15.07;;;23.30;99.90;;;;;;7356255;32;20153;-57
2023/06/29 15:43:37;;;;;;;20.40;14.82;;;23.20;99.90;;;;;;7355950;32;20147;-57
2023/06/29 15:47:39;;;;;;;19.10;15.15;;;23.20;99.90;;;;;;7353500;32;20926;-57
2023/06/29 15:51:41;;;;;;;18.20;15.05;;;23.20;99.90;;;;;;7344632;32;20234;-57
2023/06/29 15:55:43;;;;;;;23.55;16.08;;;23.20;99.90;;;;;;7352307;32;20164;-57
2023/06/29 15:59:45;;;;;;;20.65;16.30;;;23.00;99.90;;;;;;7350246;32;20214;-57
2023/06/29 16:03:47;;;;;;;21.37;16.98;;;23.10;99.90;;;;;;7352980;32;20154;-57
2023/06/29 16:07:49;;;;;;;27.27;19.30;;;23.00;99.90;;;;;;7348775;32;20250;-57
2023/06/29 16:11:50;;;;;;;25.42;18.35;;;23.00;99.90;;;;;;7351784;32;20107;-57
2023/06/29 16:15:52;;;;;;;24.15;18.65;;;23.00;99.90;;;;;;7355406;32;20204;-57
2023/06/29 16:19:55;;;;;;;24.65;18.92;;;23.10;99.90;;;;;;7342239;32;20115;-57
2023/06/29 16:23:56;;;;;;;24.50;19.23;;;23.20;99.90;;;;;;7347744;32;20099;-57
2023/06/29 16:27:58;;;;;;;27.45;19.02;;;23.30;99.90;;;;;;7346900;32;20213;-55
2023/06/29 16:32:00;;;;;;;22.17;18.05;;;23.30;99.90;;;;;;7342854;32;20138;-54
2023/06/29 16:36:02;;;;;;;22.45;17.45;;;23.30;99.90;;;;;;7341127;32;20130;-54
2023/06/29 16:40:04;;;;;;;24.30;18.10;;;23.30;99.90;;;;;;7344650;32;20184;-54
2023/06/29 16:44:06;;;;;;;26.95;18.25;;;23.30;99.90;;;;;;7340358;32;20222;-55
2023/06/29 16:48:08;;;;;;;26.35;17.95;;;23.30;99.90;;;;;;7325571;32;20190;-56
2023/06/29 16:52:11;;;;;;;24.52;17.85;;;23.40;99.90;;;;;;7337705;32;20134;-54
2023/06/29 16:56:13;;;;;;;27.08;17.92;;;23.60;99.90;;;;;;7339226;32;20545;-54
2023/06/29 17:00:15;;;;;;;22.20;17.40;;;23.70;99.90;;;;;;7340342;32;20214;-54
2023/06/29 17:04:17;;;;;;;22.08;18.42;;;23.70;99.90;;;;;;7339958;32;20143;-57
2023/06/29 17:08:19;;;;;;;22.62;17.42;;;23.50;99.90;;;;;;7341928;32;20199;-57
2023/06/29 17:12:21;;;;;;;26.10;17.87;;;23.60;99.90;;;;;;7338370;32;20139;-56
2023/06/29 17:16:22;;;;;;;22.98;17.45;;;23.60;99.90;;;;;;7343576;32;20198;-56
2023/06/29 17:20:25;;;;;;;22.75;17.90;;;23.40;99.90;;;;;;7346860;32;20233;-56
2023/06/29 17:24:27;;;;;;;25.30;18.17;;;23.60;99.90;;;;;;7334803;32;20171;-56
2023/06/29 17:28:28;;;;;;;25.10;18.25;;;23.60;99.90;;;;;;7337782;32;20156;-56
2023/06/29 17:32:30;;;;;;;25.60;17.62;;;23.50;99.90;;;;;;7344596;32;20138;-56
2023/06/29 17:36:33;;;;;;;26.10;18.42;;;23.40;99.90;;;;;;7344966;32;20269;-56
2023/06/29 17:40:35;;;;;;;27.33;18.55;;;23.20;99.90;;;;;;7345749;32;20871;-57
2023/06/29 17:44:37;;;;;;;25.48;19.70;;;23.10;99.90;;;;;;7344249;32;20198;-57
2023/06/29 17:48:39;;;;;;;31.17;22.48;;;22.80;99.90;;;;;;7352139;32;20320;-56
2023/06/29 17:52:41;;;;;;;28.27;21.65;;;22.50;99.90;;;;;;7358242;32;20143;-56
2023/06/29 17:56:43;;;;;;;30.00;22.25;;;22.50;99.90;;;;;;7355699;32;20127;-58
2023/06/29 18:00:44;;;;;;;30.17;22.83;;;22.30;99.90;;;;;;7356385;32;20126;-59
2023/06/29 18:04:46;;;;;;;29.67;23.08;;;22.20;99.90;;;;;;7356502;32;20726;-58
2023/06/29 18:08:48;;;;;;;31.98;23.55;;;22.20;99.90;;;;;;7345923;32;20126;-57
2023/06/29 18:12:50;;;;;;;30.40;23.90;;;22.00;99.90;;;;;;7350428;32;20234;-56
2023/06/29 18:16:51;;;;;;;29.02;23.35;;;22.00;99.90;;;;;;7354225;32;20157;-58
2023/06/29 18:20:53;;;;;;;33.00;24.23;;;21.90;99.90;;;;;;7350947;32;20107;-56
2023/06/29 18:24:55;;;;;;;31.25;23.50;;;21.90;99.90;;;;;;7354104;32;20510;-57
2023/06/29 18:28:57;;;;;;;31.23;23.10;;;21.80;99.90;;;;;;7342537;32;20176;-57
2023/06/29 18:32:59;;;;;;;28.40;21.90;;;21.70;99.90;;;;;;7349134;32;20290;-58
2023/06/29 18:37:01;;;;;;;31.98;23.52;;;21.60;99.90;;;;;;7349724;32;20135;-58
2023/06/29 18:41:03;;;;;;;30.12;23.08;;;21.60;99.90;;;;;;7347612;32;20107;-58
2023/06/29 18:45:06;;;;;;;31.80;24.08;;;21.60;99.90;;;;;;7345320;32;20234;-58
2023/06/29 18:49:08;;;;;;;34.88;24.20;;;21.40;99.90;;;;;;7330568;32;20177;-58
2023/06/29 18:53:09;;;;;;;28.70;22.08;;;21.40;99.90;;;;;;7338553;32;20284;-58
2023/06/29 18:57:11;;;;;;;30.33;22.17;;;21.30;99.90;;;;;;7346561;32;20115;-58
2023/06/29 19:01:14;;;;;;;32.22;23.60;;;21.20;99.90;;;;;;7337592;32;20130;-59
2023/06/29 19:05:18;;;;;;;31.20;23.62;;;21.20;99.90;;;;;;7343307;32;20214;-59
2023/06/29 19:09:20;;;;;;;30.40;23.23;;;21.10;99.90;;;;;;7344767;32;20344;-58
2023/06/29 19:13:22;;;;;;;29.98;23.70;;;21.10;99.90;;;;;;7343093;32;20141;-57
2023/06/29 19:17:24;;;;;;;33.83;24.00;;;21.10;99.90;;;;;;7347290;32;20183;-57
2023/06/29 19:21:26;;;;;;;32.25;23.90;;;21.00;99.90;;;;;;7334999;32;20194;-57
2023/06/29 19:25:47;;;;;;;38.45;26.27;;;20.90;99.90;;;;;;7348330;32;20279;-56
2023/06/29 19:29:49;;;;;;;33.42;24.95;;;20.90;99.90;;;;;;7346159;32;20258;-57
2023/06/29 19:33:51;;;;;;;31.92;24.17;;;20.80;99.90;;;;;;7344525;32;20162;-56
2023/06/29 19:37:53;;;;;;;35.97;26.58;;;20.80;99.90;;;;;;7351030;32;20139;-56
2023/06/29 19:41:55;;;;;;;34.97;25.62;;;20.70;99.90;;;;;;7345548;32;20788;-56
2023/06/29 19:45:57;;;;;;;37.72;26.12;;;20.70;99.90;;;;;;7348184;32;20775;-57
2023/06/29 19:49:59;;;;;;;34.78;25.62;;;20.60;99.90;;;;;;7348436;32;20534;-57
2023/06/29 19:54:01;;;;;;;33.70;24.90;;;20.50;99.90;;;;;;7342523;32;20184;-57
2023/06/29 19:58:03;;;;;;;32.63;24.10;;;20.40;99.90;;;;;;7336846;32;20221;-56
2023/06/29 20:02:05;;;;;;;35.03;25.45;;;20.40;99.90;;;;;;7346389;32;20133;-56
2023/06/29 20:06:08;;;;;;;35.47;25.98;;;20.50;99.90;;;;;;7347042;32;20186;-55
2023/06/29 20:10:10;;;;;;;37.90;25.77;;;20.30;99.90;;;;;;7339467;32;20536;-54
2023/06/29 20:14:12;;;;;;;36.03;25.65;;;20.40;99.90;;;;;;7354099;32;20503;-55
2023/06/29 20:18:13;;;;;;;36.03;26.42;;;20.40;99.90;;;;;;7341126;32;20164;-54
2023/06/29 20:22:15;;;;;;;36.72;26.77;;;20.20;99.90;;;;;;7339770;32;20210;-54
2023/06/29 20:26:18;;;;;;;37.75;27.23;;;20.10;99.90;;;;;;7344968;32;20115;-54
2023/06/29 20:30:19;;;;;;;33.97;25.60;;;20.00;99.90;;;;;;7337153;32;20130;-54
2023/06/29 20:34:21;;;;;;;37.80;25.58;;;19.90;99.90;;;;;;7350700;32;20211;-54
2023/06/29 20:38:23;;;;;;;31.87;25.05;;;19.80;99.90;;;;;;7346621;32;20115;-54
2023/06/29 20:42:24;;;;;;;33.35;24.37;;;19.70;99.90;;;;;;7348704;32;20191;-54